Bigfork, Minnesota
Current Conditions -  °F | °C
As of 5:12 PM on Wednesday 17 Dec 2014 (Local Time) from KFOZ Reporting Station
Clear Clear  
Wind Chill: 14°   Ceiling: Unl
Heat Index: 14°   Visibility: 10mi
Dew Point:   Wind: 0mph
Humidity: 79%   Direction: NA
Pressure: 30.3"   Gusts: NA
Location:  47.74°N, 93.65°W
Report Text: KFOZ 172312Z AUTO 00000KT 10SM CLR M10/M13 A3030 RMK AO2
Loading
Personal Weather Stations






























Interactive Weather Map New forecast layout! Learn more

10-Day Weather Forecast

Advertisements
Track Severe Weather on mobile